createdAt,value
2023-01-29T00:02:04.038Z,100391.98
2023-01-29T00:04:31.281Z,100394.32
2023-01-29T00:06:58.629Z,100393.97
2023-01-29T00:09:25.264Z,100396.66
2023-01-29T00:11:52.325Z,100397.16
2023-01-29T00:14:19.166Z,100403.35
2023-01-29T00:16:45.846Z,100400.62
2023-01-29T00:19:12.662Z,100400.75
2023-01-29T00:21:39.305Z,100401.55
2023-01-29T00:24:06.032Z,100401.60
2023-01-29T00:26:32.800Z,100403.86
2023-01-29T00:29:02.468Z,100398.83
2023-01-29T00:31:30.018Z,100400.41
2023-01-29T00:33:56.992Z,100400.13
2023-01-29T00:36:24.357Z,100400.61
2023-01-29T00:38:58.021Z,100402.60
2023-01-29T00:41:47.457Z,100401.83
2023-01-29T00:44:33.873Z,100403.00
2023-01-29T00:47:00.679Z,100408.96
2023-01-29T00:49:27.358Z,100405.89
2023-01-29T00:52:12.673Z,100401.24
2023-01-29T00:54:39.411Z,100401.88
2023-01-29T00:57:06.344Z,100402.41
2023-01-29T00:59:33.256Z,100401.16
2023-01-29T01:02:19.058Z,100402.05
2023-01-29T01:04:46.019Z,100402.42
2023-01-29T01:09:58.548Z,100392.27
2023-01-29T01:12:25.596Z,100391.23
2023-01-29T01:14:52.953Z,100393.48
2023-01-29T01:17:19.693Z,100394.13
2023-01-29T01:19:47.495Z,100397.75
2023-01-29T01:22:14.108Z,100401.58
2023-01-29T01:24:40.905Z,100401.95
2023-01-29T01:27:08.207Z,100405.08
2023-01-29T01:29:35.865Z,100405.48
2023-01-29T01:32:02.509Z,100402.52
2023-01-29T01:34:30.807Z,100400.88
2023-01-29T01:36:58.978Z,100400.98
2023-01-29T01:39:25.641Z,100402.30
2023-01-29T01:41:55.706Z,100403.17
2023-01-29T01:44:51.350Z,100401.17
2023-01-29T01:47:43.659Z,100402.61
2023-01-29T01:50:16.483Z,100404.89
2023-01-29T01:52:46.154Z,100406.86
2023-01-29T05:23:29.875Z,100417.85
2023-01-29T05:26:36.616Z,100411.21
2023-01-29T05:29:13.218Z,100415.75
2023-01-29T05:31:46.082Z,100419.70
2023-01-29T05:34:42.397Z,100417.58
2023-01-29T05:37:13.085Z,100419.36
2023-01-29T05:39:39.892Z,100420.27
2023-01-29T05:42:06.925Z,100417.11
2023-01-29T05:44:33.818Z,100417.17
2023-01-29T05:47:02.160Z,100420.05
2023-01-29T05:49:29.024Z,100421.95
2023-01-29T05:51:55.868Z,100424.69
2023-01-29T05:54:22.648Z,100426.48
2023-01-29T05:56:49.352Z,100424.11
2023-01-29T05:59:16.067Z,100424.45
2023-01-29T06:01:43.102Z,100426.48
2023-01-29T06:04:09.796Z,100428.48
2023-01-29T06:06:40.413Z,100426.83
2023-01-29T06:09:06.941Z,100430.54
2023-01-29T06:11:33.875Z,100429.64
2023-01-29T06:14:01.461Z,100430.46
2023-01-29T06:16:28.414Z,100432.97
2023-01-29T06:18:55.115Z,100429.11
2023-01-29T06:21:21.807Z,100427.48
2023-01-29T06:23:48.815Z,100425.67
2023-01-29T06:26:15.718Z,100426.19
2023-01-29T06:28:43.108Z,100431.99
2023-01-29T06:31:37.945Z,100432.09
2023-01-29T06:33:56.475Z,100433.52
2023-01-29T06:36:23.108Z,100431.71
2023-01-29T06:38:49.942Z,100434.31
2023-01-29T06:41:18.256Z,100432.66
2023-01-29T06:43:45.335Z,100433.76
2023-01-29T06:46:12.094Z,100434.70
2023-01-29T06:48:38.821Z,100437.09
2023-01-29T06:51:06.622Z,100435.09
2023-01-29T06:53:34.602Z,100435.34
2023-01-29T06:56:01.276Z,100435.20
2023-01-29T06:58:28.215Z,100436.63
2023-01-29T07:01:04.725Z,100432.48
2023-01-29T07:03:32.971Z,100434.59
2023-01-29T07:05:59.559Z,100431.30
2023-01-29T07:08:26.135Z,100429.80
2023-01-29T07:10:52.753Z,100429.30
2023-01-29T07:13:19.771Z,100426.56
2023-01-29T07:15:46.430Z,100421.89
2023-01-29T07:18:14.180Z,100419.29
2023-01-29T07:20:41.413Z,100412.16
2023-01-29T07:23:12.101Z,100414.05
2023-01-29T07:25:39.014Z,100411.41
2023-01-29T07:28:06.458Z,100416.27
2023-01-29T07:30:33.135Z,100420.73
2023-01-29T07:33:07.726Z,100422.95
2023-01-29T07:35:42.231Z,100425.46
2023-01-29T07:38:09.437Z,100421.80
2023-01-29T07:40:38.314Z,100419.32
2023-01-29T07:43:06.280Z,100413.55
2023-01-29T07:45:34.748Z,100411.18
2023-01-29T07:48:01.501Z,100408.17
2023-01-29T07:50:28.300Z,100410.60
2023-01-29T07:52:55.218Z,100405.72
2023-01-29T07:55:22.001Z,100406.60
2023-01-29T07:57:57.428Z,100406.96
2023-01-29T08:00:24.289Z,100406.42
2023-01-29T08:02:51.002Z,100408.38
2023-01-29T08:05:19.238Z,100414.79
2023-01-29T08:07:49.345Z,100410.14
2023-01-29T08:10:24.255Z,100408.00
2023-01-29T08:12:56.339Z,100412.17
2023-01-29T08:15:23.508Z,100420.34
2023-01-29T08:20:37.626Z,100419.38
2023-01-29T08:23:07.832Z,100414.94
2023-01-29T08:25:34.924Z,100417.20
2023-01-29T08:28:01.571Z,100420.58
2023-01-29T08:30:30.358Z,100416.86
2023-01-29T08:32:56.965Z,100421.23
2023-01-29T08:35:24.122Z,100422.40
2023-01-29T08:37:54.658Z,100422.29
2023-01-29T08:40:21.546Z,100427.09
2023-01-29T08:42:48.163Z,100426.11
2023-01-29T08:45:15.024Z,100426.14
2023-01-29T08:47:48.560Z,100418.15
2023-01-29T08:50:16.717Z,100412.88
2023-01-29T08:52:43.971Z,100414.61
2023-01-29T08:55:12.167Z,100413.11
2023-01-29T08:57:39.015Z,100415.41
2023-01-29T09:00:06.824Z,100410.98
2023-01-29T09:02:33.555Z,100408.75
2023-01-29T09:05:00.639Z,100403.85
2023-01-29T09:07:28.790Z,100399.69
2023-01-29T09:09:55.788Z,100401.48
2023-01-29T09:12:22.385Z,100400.77
2023-01-29T09:14:49.069Z,100402.25
2023-01-29T09:17:15.701Z,100397.88
2023-01-29T09:19:42.382Z,100395.55
2023-01-29T09:22:10.987Z,100395.90
2023-01-29T09:24:38.663Z,100391.53
2023-01-29T09:27:06.221Z,100388.82
2023-01-29T09:29:35.800Z,100384.73
2023-01-29T09:32:07.011Z,100379.21
2023-01-29T09:34:37.326Z,100378.60
2023-01-29T09:37:04.085Z,100375.39
2023-01-29T09:39:30.650Z,100371.73
2023-01-29T09:42:08.020Z,100368.95
2023-01-29T09:45:03.341Z,100371.85
2023-01-29T09:47:31.450Z,100369.27
2023-01-29T09:50:05.122Z,100372.20
2023-01-29T14:13:11.420Z,100239.00
2023-01-29T14:15:40.158Z,100230.53
2023-01-29T14:18:08.497Z,100226.64
2023-01-29T14:20:48.819Z,100229.58
2023-01-29T14:23:44.683Z,100226.05
2023-01-29T14:26:26.866Z,100227.52
2023-01-29T14:29:00.976Z,100234.77
2023-01-29T14:31:59.185Z,100226.85
2023-01-29T14:34:35.400Z,100227.71
2023-01-29T14:37:26.504Z,100232.29
2023-01-29T14:39:56.194Z,100230.01
2023-01-29T14:42:25.094Z,100232.77
2023-01-29T14:44:54.765Z,100241.51
2023-01-29T14:47:38.551Z,100242.52
2023-01-29T14:50:35.179Z,100241.67
2023-01-29T14:53:45.235Z,100241.50
2023-01-29T14:56:17.530Z,100247.39
2023-01-29T14:59:18.076Z,100242.19
2023-01-29T15:01:53.040Z,100244.66
2023-01-29T15:04:25.939Z,100247.70
2023-01-29T15:07:05.503Z,100245.52
2023-01-29T15:09:41.961Z,100244.80
2023-01-29T15:12:31.318Z,100244.38
2023-01-29T15:15:37.675Z,100248.17
2023-01-29T15:18:08.639Z,100245.14
2023-01-29T15:20:38.572Z,100243.23
2023-01-29T15:23:28.624Z,100244.91
2023-01-29T15:25:58.767Z,100244.16
2023-01-29T15:28:26.872Z,100246.27
2023-01-29T15:30:57.164Z,100251.00
2023-01-29T15:33:25.903Z,100250.64
2023-01-29T15:36:06.698Z,100254.41
2023-01-29T15:38:35.736Z,100251.70
2023-01-29T15:41:18.497Z,100251.28
2023-01-29T15:43:50.700Z,100249.30
2023-01-29T15:46:22.869Z,100252.34
2023-01-29T15:48:51.652Z,100251.08
2023-01-29T15:51:24.067Z,100254.33
2023-01-29T15:53:57.392Z,100256.52
2023-01-29T15:56:29.702Z,100261.03
2023-01-29T15:58:58.327Z,100257.73
2023-01-29T16:01:27.519Z,100257.15
2023-01-29T16:03:59.120Z,100254.79
2023-01-29T16:06:27.436Z,100256.58
2023-01-29T16:08:55.680Z,100253.76
2023-01-29T16:11:23.924Z,100248.37
2023-01-29T16:13:52.029Z,100249.79
2023-01-29T16:16:29.196Z,100250.30
2023-01-29T16:19:00.775Z,100251.84
2023-01-29T16:21:37.445Z,100252.73
2023-01-29T16:24:11.875Z,100249.57
2023-01-29T16:26:43.458Z,100254.70
2023-01-29T16:29:13.447Z,100257.85
2023-01-29T16:31:42.537Z,100257.45
2023-01-29T16:34:34.600Z,100254.66
2023-01-29T16:37:04.474Z,100257.88
2023-01-29T16:39:38.289Z,100261.65
2023-01-29T16:42:13.085Z,100260.23
2023-01-29T16:44:41.253Z,100263.32
2023-01-29T16:47:33.017Z,100261.73
2023-01-29T16:50:20.035Z,100259.14
2023-01-29T16:53:33.322Z,100261.84
2023-01-29T16:56:02.947Z,100259.36
2023-01-29T16:58:31.229Z,100259.69
2023-01-29T17:01:05.320Z,100261.59
2023-01-29T17:03:34.099Z,100263.46
2023-01-29T17:06:12.026Z,100264.01
2023-01-29T17:08:43.815Z,100264.73
2023-01-29T17:11:13.100Z,100263.55
2023-01-29T17:13:42.983Z,100266.82
2023-01-29T17:16:21.358Z,100265.70
2023-01-29T17:18:50.145Z,100262.45
2023-01-29T17:21:18.221Z,100259.86
2023-01-29T17:23:46.369Z,100252.85
2023-01-29T17:26:14.783Z,100256.79
2023-01-29T17:28:42.816Z,100254.51
2023-01-29T17:31:10.927Z,100251.36
2023-01-29T17:33:42.937Z,100250.11
2023-01-29T17:36:12.582Z,100250.59
2023-01-29T17:38:43.307Z,100244.55
2023-01-29T17:41:27.352Z,100246.10
2023-01-29T17:43:55.932Z,100245.27
2023-01-29T17:46:28.192Z,100245.83
2023-01-29T17:48:56.352Z,100243.37
2023-01-29T17:51:25.093Z,100238.52
2023-01-29T17:53:53.328Z,100234.90
2023-01-29T21:51:38.675Z,100180.17
2023-01-29T21:54:07.267Z,100171.42
2023-01-29T21:56:35.371Z,100166.58
2023-01-29T21:59:03.352Z,100164.70
2023-01-29T22:01:41.471Z,100162.45
2023-01-29T22:04:09.844Z,100157.83
2023-01-29T22:06:38.395Z,100156.32
2023-01-29T22:09:07.509Z,100161.45
2023-01-29T22:11:36.288Z,100157.12
2023-01-29T22:14:05.081Z,100156.13
2023-01-29T22:16:33.436Z,100156.77
2023-01-29T22:19:01.571Z,100157.77
2023-01-29T22:21:29.904Z,100153.98
2023-01-29T22:23:58.078Z,100153.03
2023-01-29T22:26:26.350Z,100154.10
2023-01-29T22:28:54.524Z,100157.27
2023-01-29T22:31:22.598Z,100161.55
2023-01-29T22:33:54.357Z,100156.33
2023-01-29T22:36:22.373Z,100152.83
2023-01-29T22:38:50.601Z,100152.92
2023-01-29T22:41:18.681Z,100148.06
2023-01-29T22:43:46.747Z,100149.68
2023-01-29T22:46:14.951Z,100144.73
2023-01-29T22:48:45.065Z,100140.13
2023-01-29T22:51:13.970Z,100139.98
2023-01-29T22:53:52.864Z,100138.23
2023-01-29T22:56:25.299Z,100140.66
2023-01-29T22:58:55.072Z,100137.01
2023-01-29T23:01:28.009Z,100130.45
2023-01-29T23:03:56.718Z,100127.02
2023-01-29T23:06:25.017Z,100120.09
2023-01-29T23:08:53.068Z,100114.90
2023-01-29T23:11:21.616Z,100117.08
2023-01-29T23:13:54.309Z,100111.41
2023-01-29T23:16:26.261Z,100106.04
2023-01-29T23:18:56.229Z,100103.40
2023-01-29T23:21:25.277Z,100104.43
2023-01-29T23:23:58.344Z,100096.55
2023-01-29T23:26:45.244Z,100085.48
2023-01-29T23:29:13.449Z,100074.09
2023-01-29T23:31:41.633Z,100069.36
2023-01-29T23:34:09.965Z,100068.14
2023-01-29T23:36:38.131Z,100065.41
2023-01-29T23:39:06.479Z,100062.95
2023-01-29T23:41:35.559Z,100063.48
2023-01-29T23:44:04.470Z,100059.58
2023-01-29T23:46:32.685Z,100058.67
2023-01-29T23:49:00.930Z,100050.36
2023-01-29T23:51:29.211Z,100052.55
2023-01-29T23:53:57.399Z,100047.38
2023-01-29T23:56:25.659Z,100039.52
2023-01-29T23:58:56.820Z,100036.28
